DAL196 RKSI-KSEA
Flight info
| Callsign | DAL196 |
|---|---|
| Flight time | N/A |
| Altitude | 37000 |
| Route | EGOBA2H EGOBA Y697 KAE Y437 TENAS L512 GTC Y512 ADNAP R591 ADGOR DCT 45N160E/N0480F390 46N170E 46N180E 47N170W 48N160W/N0491F410 49N150W 50N140W DCT ORNAI DCT TOU MARNR8 |
| Aircraft | A359/H-SDE2E3GHIJ3J4J5LM1ORWXY/LB1D1 |
Departure
| Time | N/A |
|---|---|
| Airport | Incheon International Airport (RKSI) |
Arrival
| Time | 2026-05-07 15:01 |
|---|---|
| Airport | Seattle–Tacoma International Airport (KSEA) |
| Time | Latitude | Longitude | Altitude | Speed | Heading |
|---|---|---|---|---|---|
| 2026-05-07 14:44 | 48.13323 | -123.46797 | 17181 ft | 386 kts | 101° |
| 2026-05-07 14:44 | 48.12748 | -123.42949 | 17036 ft | 374 kts | 101° |
| 2026-05-07 14:45 | 48.12179 | -123.39143 | 16913 ft | 375 kts | 101° |
| 2026-05-07 14:45 | 48.11610 | -123.35333 | 16870 ft | 376 kts | 101° |
| 2026-05-07 14:45 | 48.11035 | -123.31522 | 16827 ft | 375 kts | 101° |
| 2026-05-07 14:45 | 48.10458 | -123.27718 | 16600 ft | 374 kts | 101° |
| 2026-05-07 14:46 | 48.09883 | -123.23940 | 16361 ft | 369 kts | 101° |
| 2026-05-07 14:46 | 48.09317 | -123.20233 | 16040 ft | 363 kts | 101° |
| 2026-05-07 14:46 | 48.08755 | -123.16553 | 15638 ft | 360 kts | 101° |
| 2026-05-07 14:46 | 48.08207 | -123.12969 | 15220 ft | 358 kts | 101° |
| 2026-05-07 14:47 | 48.07654 | -123.09361 | 14812 ft | 355 kts | 101° |
| 2026-05-07 14:47 | 48.07106 | -123.05791 | 14355 ft | 354 kts | 101° |
| 2026-05-07 14:47 | 48.06646 | -123.02800 | 13911 ft | 354 kts | 101° |
| 2026-05-07 14:47 | 48.06094 | -122.99225 | 13438 ft | 350 kts | 101° |
| 2026-05-07 14:48 | 48.05550 | -122.95707 | 13020 ft | 345 kts | 101° |
| 2026-05-07 14:48 | 48.05011 | -122.92228 | 12619 ft | 341 kts | 101° |
| 2026-05-07 14:48 | 48.04477 | -122.88792 | 12255 ft | 337 kts | 101° |
| 2026-05-07 14:48 | 48.03875 | -122.85486 | 12058 ft | 324 kts | 109° |
| 2026-05-07 14:49 | 48.02855 | -122.82550 | 11942 ft | 313 kts | 120° |
| 2026-05-07 14:49 | 48.01705 | -122.79859 | 11805 ft | 304 kts | 122° |
| 2026-05-07 14:49 | 48.00557 | -122.77235 | 11522 ft | 300 kts | 122° |
| 2026-05-07 14:49 | 47.99421 | -122.74630 | 11234 ft | 297 kts | 122° |
| 2026-05-07 14:50 | 47.98406 | -122.71947 | 11013 ft | 299 kts | 112° |
| 2026-05-07 14:50 | 47.97641 | -122.69045 | 10768 ft | 301 kts | 108° |
| 2026-05-07 14:50 | 47.96941 | -122.66106 | 10407 ft | 299 kts | 108° |
| 2026-05-07 14:50 | 47.96250 | -122.63188 | 10018 ft | 297 kts | 108° |
| 2026-05-07 14:51 | 47.95570 | -122.60328 | 9767 ft | 287 kts | 109° |
| 2026-05-07 14:51 | 47.94910 | -122.57574 | 9592 ft | 278 kts | 108° |
| 2026-05-07 14:51 | 47.94268 | -122.54896 | 9337 ft | 271 kts | 108° |
| 2026-05-07 14:51 | 47.93646 | -122.52310 | 9089 ft | 267 kts | 108° |
| 2026-05-07 14:52 | 47.93001 | -122.49728 | 8833 ft | 266 kts | 112° |
| 2026-05-07 14:52 | 47.91962 | -122.47452 | 8578 ft | 267 kts | 137° |
| 2026-05-07 14:52 | 47.90365 | -122.46082 | 8187 ft | 268 kts | 160° |
| 2026-05-07 14:52 | 47.88587 | -122.45255 | 7841 ft | 265 kts | 163° |
| 2026-05-07 14:53 | 47.86865 | -122.44534 | 7624 ft | 249 kts | 163° |
| 2026-05-07 14:53 | 47.85225 | -122.43840 | 7383 ft | 243 kts | 163° |
| 2026-05-07 14:53 | 47.83603 | -122.43142 | 7144 ft | 242 kts | 163° |
| 2026-05-07 14:53 | 47.81993 | -122.42440 | 6892 ft | 240 kts | 163° |
| 2026-05-07 14:54 | 47.80392 | -122.41738 | 6642 ft | 240 kts | 163° |
| 2026-05-07 14:54 | 47.78793 | -122.41034 | 6393 ft | 239 kts | 163° |
| 2026-05-07 14:54 | 47.77211 | -122.40310 | 6136 ft | 237 kts | 159° |
| 2026-05-07 14:54 | 47.75692 | -122.39355 | 5836 ft | 236 kts | 154° |
| 2026-05-07 14:55 | 47.74211 | -122.38308 | 5549 ft | 235 kts | 153° |
| 2026-05-07 14:55 | 47.72741 | -122.37254 | 5309 ft | 234 kts | 153° |
| 2026-05-07 14:55 | 47.71278 | -122.36207 | 5085 ft | 233 kts | 153° |
| 2026-05-07 14:55 | 47.69824 | -122.35170 | 4831 ft | 231 kts | 153° |
| 2026-05-07 14:56 | 47.68384 | -122.34145 | 4596 ft | 229 kts | 153° |
| 2026-05-07 14:56 | 47.66956 | -122.33131 | 4368 ft | 227 kts | 153° |
| 2026-05-07 14:56 | 47.65530 | -122.32140 | 4121 ft | 225 kts | 155° |
| 2026-05-07 14:56 | 47.64026 | -122.31639 | 4018 ft | 226 kts | 175° |
| 2026-05-07 14:57 | 47.62459 | -122.31593 | 3741 ft | 226 kts | 180° |
| 2026-05-07 14:57 | 47.60886 | -122.31670 | 3393 ft | 226 kts | 180° |
| 2026-05-07 14:57 | 47.59308 | -122.31684 | 3058 ft | 226 kts | 179° |
| 2026-05-07 14:57 | 47.57740 | -122.31686 | 2745 ft | 224 kts | 180° |
| 2026-05-07 14:58 | 47.56189 | -122.31708 | 2438 ft | 222 kts | 180° |
| 2026-05-07 14:58 | 47.54659 | -122.31721 | 2143 ft | 218 kts | 180° |
| 2026-05-07 14:58 | 47.53205 | -122.31732 | 1844 ft | 196 kts | 181° |
| 2026-05-07 14:58 | 47.51925 | -122.31745 | 1579 ft | 173 kts | 181° |
| 2026-05-07 14:59 | 47.50774 | -122.31754 | 1344 ft | 158 kts | 181° |
| 2026-05-07 14:59 | 47.49711 | -122.31763 | 1121 ft | 146 kts | 180° |
| 2026-05-07 14:59 | 47.48727 | -122.31771 | 929 ft | 138 kts | 180° |
| 2026-05-07 14:59 | 47.47779 | -122.31779 | 739 ft | 133 kts | 180° |
| 2026-05-07 15:00 | 47.46874 | -122.31781 | 542 ft | 128 kts | 180° |
| 2026-05-07 15:00 | 47.45988 | -122.31787 | 422 ft | 125 kts | 181° |
| 2026-05-07 15:00 | 47.45279 | -122.31798 | 400 ft | 71 kts | 180° |
| 2026-05-07 15:00 | 47.44886 | -122.31801 | 394 ft | 52 kts | 180° |
| 2026-05-07 15:01 | 47.44557 | -122.31712 | 385 ft | 48 kts | 155° |
| 2026-05-07 15:01 | 47.44286 | -122.31481 | 383 ft | 40 kts | 135° |
| 2026-05-07 15:01 | 47.44181 | -122.31164 | 389 ft | 30 kts | 125° |
| 2026-05-07 15:01 | 47.44017 | -122.30978 | 386 ft | 31 kts | 150° |
| 2026-05-07 15:02 | 47.43902 | -122.30763 | 386 ft | 21 kts | 97° |
| 2026-05-07 15:02 | 47.43892 | -122.30612 | 387 ft | 1 kts | 89° |
| 2026-05-07 15:04 | 47.43893 | -122.30596 | 388 ft | 5 kts | 82° |
| 2026-05-07 15:04 | 47.43939 | -122.30552 | 390 ft | 13 kts | 7° |
| 2026-05-07 15:05 | 47.43989 | -122.30440 | 392 ft | 18 kts | 82° |
| 2026-05-07 15:05 | 47.44028 | -122.30261 | 392 ft | 14 kts | 50° |
| 2026-05-07 15:05 | 47.44103 | -122.30195 | 394 ft | 9 kts | 36° |
| 2026-05-07 15:05 | 47.44124 | -122.30164 | 398 ft | 4 kts | 49° |
| 2026-05-07 15:06 | 47.44134 | -122.30151 | 397 ft | 0 kts | 39° |
| 2026-05-07 15:06 | 47.44137 | -122.30148 | 393 ft | 2 kts | 39° |
| 2026-05-07 15:06 | 47.44141 | -122.30142 | 395 ft | 0 kts | 39° |